Terminal Aerodrome Forecast
Issued by NWS

Home | Current Version | Previous Version | Text Only | Print | Product List | Glossary On
Versions: 1 2 3 4 5 6 7 8 9 10 11 12 13
000
FTUS45 KRIW 271120
TAFCPR
TAF
KCPR 271120Z 2712/2812 21012G18KT P6SM VCTS SCT090CB BKN110
     FM271400 22018G28KT P6SM SCT120
     FM272100 23025G38KT P6SM SCT100
     FM272300 26025G38KT P6SM FEW100
     FM280300 26018G28KT P6SM SKC=

USA.gov is the U.S. government's official web portal to all federal, state and local government web resources and services.